createdAt,value
2022-09-16T00:01:49.915Z,20.20
2022-09-16T00:04:15.974Z,20.30
2022-09-16T00:06:41.914Z,20.30
2022-09-16T00:09:07.858Z,20.30
2022-09-16T00:11:33.838Z,20.20
2022-09-16T00:14:02.124Z,20.20
2022-09-16T00:16:29.067Z,19.40
2022-09-16T00:18:55.061Z,19.70
2022-09-16T00:21:21.037Z,19.90
2022-09-16T00:23:47.890Z,20.10
2022-09-16T00:26:14.834Z,20.10
2022-09-16T00:28:41.479Z,20.10
2022-09-16T00:31:07.827Z,19.90
2022-09-16T00:33:34.018Z,19.90
2022-09-16T00:36:00.289Z,20.10
2022-09-16T00:38:26.442Z,19.90
2022-09-16T00:40:52.807Z,19.70
2022-09-16T00:43:20.009Z,19.80
2022-09-16T03:18:17.825Z,19.50
2022-09-16T03:20:43.892Z,19.60
2022-09-16T03:23:10.780Z,19.70
2022-09-16T03:25:37.565Z,19.70
2022-09-16T03:28:04.510Z,19.50
2022-09-16T03:30:31.397Z,19.10
2022-09-16T03:32:57.433Z,19.10
2022-09-16T03:35:23.481Z,19.00
2022-09-16T03:46:05.800Z,19.90
2022-09-16T03:48:31.923Z,19.90
2022-09-16T03:51:00.849Z,19.90
2022-09-16T03:53:27.582Z,20.00
2022-09-16T03:55:54.461Z,20.00
2022-09-16T03:58:20.502Z,20.10
2022-09-16T04:00:47.352Z,20.10
2022-09-16T04:03:14.168Z,19.80
2022-09-16T04:05:40.206Z,19.60
2022-09-16T04:08:06.408Z,19.50
2022-09-16T04:10:32.530Z,19.40
2022-09-16T04:12:58.542Z,19.10
2022-09-16T04:15:24.587Z,19.40
2022-09-16T04:17:51.542Z,19.60
2022-09-16T04:20:17.728Z,19.60
2022-09-16T04:22:43.787Z,19.60
2022-09-16T04:25:09.843Z,19.40
2022-09-16T04:27:36.632Z,19.50
2022-09-16T04:30:02.702Z,19.40
2022-09-16T04:32:28.771Z,19.20
2022-09-16T04:34:55.559Z,18.80
2022-09-16T04:37:21.605Z,18.50
2022-09-16T04:39:52.076Z,18.60
2022-09-16T04:42:19.017Z,19.00
2022-09-16T04:44:45.894Z,19.30
2022-09-16T04:47:12.105Z,19.40
2022-09-16T04:49:40.746Z,19.40
2022-09-16T04:54:59.739Z,19.00
2022-09-16T04:57:25.669Z,19.00
2022-09-16T04:59:51.646Z,19.00
2022-09-16T05:02:17.619Z,19.10
2022-09-16T05:04:43.558Z,19.20
2022-09-16T05:07:09.500Z,19.40
2022-09-16T05:09:35.501Z,19.50
2022-09-16T05:12:02.195Z,19.30
2022-09-16T05:14:28.475Z,19.30
2022-09-16T05:16:54.779Z,19.30
2022-09-16T05:19:21.003Z,19.40
2022-09-16T05:21:47.427Z,19.50
2022-09-16T05:24:13.642Z,19.50
2022-09-16T06:58:38.123Z,18.40
2022-09-16T07:01:04.139Z,18.30
2022-09-16T07:03:30.906Z,18.20
2022-09-16T07:05:56.845Z,17.70
2022-09-16T07:08:22.811Z,17.70
2022-09-16T07:10:48.771Z,17.70
2022-09-16T07:13:14.801Z,17.70
2022-09-16T07:16:02.335Z,17.70
2022-09-16T07:18:27.185Z,18.00
2022-09-16T07:20:53.148Z,17.90
2022-09-16T07:23:19.135Z,17.70
2022-09-16T07:25:45.800Z,17.90
2022-09-16T07:28:11.769Z,17.80
2022-09-16T07:30:38.281Z,17.70
2022-09-16T07:33:04.257Z,17.80
2022-09-16T07:35:30.237Z,17.40
2022-09-16T07:37:56.723Z,17.60
2022-09-16T07:40:26.665Z,17.60
2022-09-16T07:42:55.504Z,17.50
2022-09-16T07:45:21.491Z,17.50
2022-09-16T07:47:48.218Z,17.10
2022-09-16T07:50:15.044Z,17.30
2022-09-16T07:52:41.042Z,17.30
2022-09-16T07:55:06.997Z,17.50
2022-09-16T07:57:33.925Z,17.60
2022-09-16T07:59:59.871Z,17.80
2022-09-16T08:02:25.986Z,17.60
2022-09-16T08:04:52.098Z,17.60
2022-09-16T08:07:18.058Z,17.60
2022-09-16T08:09:50.646Z,17.60
2022-09-16T08:12:17.679Z,17.80
2022-09-16T08:14:43.665Z,17.50
2022-09-16T08:17:09.642Z,17.70
2022-09-16T08:19:36.324Z,17.70
2022-09-16T08:22:02.626Z,17.80
2022-09-16T08:24:28.662Z,17.70
2022-09-16T08:29:25.415Z,17.30
2022-09-16T08:31:51.439Z,17.50
2022-09-16T08:34:17.387Z,17.20
2022-09-16T08:36:44.230Z,17.60
2022-09-16T08:39:10.903Z,17.70
2022-09-16T08:41:36.904Z,17.50
2022-09-16T08:44:02.864Z,17.70
2022-09-16T08:46:28.927Z,17.70
2022-09-16T08:48:54.977Z,17.50
2022-09-16T08:51:20.990Z,17.40
2022-09-16T08:53:47.005Z,17.40
2022-09-16T08:56:13.809Z,16.90
2022-09-16T08:58:40.152Z,16.90
2022-09-16T09:01:06.261Z,16.90
2022-09-16T09:03:33.043Z,17.10
2022-09-16T09:05:59.122Z,17.00
2022-09-16T09:08:25.097Z,16.90
2022-09-16T09:10:51.839Z,16.50
2022-09-16T09:13:18.903Z,16.50
2022-09-16T09:15:46.280Z,16.40
2022-09-16T09:18:15.854Z,16.50
2022-09-16T09:20:42.265Z,16.70
2022-09-16T09:23:08.247Z,16.60
2022-09-16T09:25:35.119Z,16.60
2022-09-16T09:28:01.174Z,16.50
2022-09-16T09:30:27.197Z,16.70
2022-09-16T09:32:53.984Z,16.90
2022-09-16T09:35:20.030Z,17.00
2022-09-16T09:37:47.688Z,16.60
2022-09-16T09:40:13.795Z,16.50
2022-09-16T09:42:40.360Z,16.30
2022-09-16T09:45:06.704Z,16.20
2022-09-16T09:47:34.268Z,16.30
2022-09-16T09:50:00.452Z,16.30
2022-09-16T11:28:07.694Z,15.70
2022-09-16T11:30:33.725Z,16.00
2022-09-16T11:33:01.921Z,16.60
2022-09-16T11:35:29.583Z,16.90
2022-09-16T11:37:55.643Z,17.20
2022-09-16T11:40:21.697Z,17.60
2022-09-16T11:42:48.641Z,17.30
2022-09-16T11:45:14.649Z,16.90
2022-09-16T11:47:41.048Z,17.10
2022-09-16T11:50:07.098Z,17.00
2022-09-16T11:52:33.145Z,17.20
2022-09-16T11:54:59.136Z,17.00
2022-09-16T11:57:25.814Z,16.90
2022-09-16T11:59:51.849Z,17.20
2022-09-16T12:02:17.902Z,17.50
2022-09-16T12:04:43.970Z,17.50
2022-09-16T12:07:10.867Z,17.00
2022-09-16T12:09:36.903Z,17.10
2022-09-16T12:12:02.918Z,17.30
2022-09-16T12:14:28.895Z,16.80
2022-09-16T12:16:54.920Z,16.70
2022-09-16T12:19:20.915Z,16.90
2022-09-16T12:21:47.997Z,17.00
2022-09-16T12:24:13.995Z,17.10
2022-09-16T12:26:39.981Z,17.00
2022-09-16T12:29:06.809Z,17.20
2022-09-16T12:31:32.903Z,17.20
2022-09-16T12:33:58.983Z,17.20
2022-09-16T12:36:25.670Z,17.20
2022-09-16T12:38:51.663Z,17.00
2022-09-16T12:41:17.671Z,17.00
2022-09-16T12:43:43.653Z,17.20
2022-09-16T12:46:09.673Z,17.10
2022-09-16T12:48:35.691Z,16.90
2022-09-16T12:51:01.686Z,16.80
2022-09-16T12:53:27.682Z,17.00
2022-09-16T12:55:53.768Z,16.80
2022-09-16T12:58:19.774Z,16.50
2022-09-16T13:00:45.853Z,16.70
2022-09-16T13:03:11.938Z,16.90
2022-09-16T13:05:37.943Z,16.80
2022-09-16T13:08:03.949Z,16.60
2022-09-16T13:10:54.061Z,16.70
2022-09-16T13:13:16.217Z,16.70
2022-09-16T13:15:42.657Z,16.70
2022-09-16T13:18:08.750Z,16.60
2022-09-16T13:20:35.375Z,16.60
2022-09-16T13:23:01.399Z,16.80
2022-09-16T13:25:27.432Z,16.80
2022-09-16T13:27:53.450Z,16.70
2022-09-16T13:30:19.446Z,16.50
2022-09-16T13:32:45.512Z,16.20
2022-09-16T13:35:11.504Z,16.00
2022-09-16T13:37:38.358Z,15.60
2022-09-16T13:40:04.476Z,15.70
2022-09-16T13:42:30.501Z,15.70
2022-09-16T13:44:56.492Z,15.70
2022-09-16T13:47:22.501Z,15.90
2022-09-16T13:49:48.539Z,15.90
2022-09-16T13:52:14.525Z,15.70
2022-09-16T13:55:09.054Z,15.90
2022-09-16T13:57:26.780Z,16.00
2022-09-16T13:59:53.202Z,16.50
2022-09-16T14:02:20.788Z,16.40
2022-09-16T14:04:46.971Z,16.30
2022-09-16T14:09:55.103Z,16.10
2022-09-16T14:12:21.500Z,16.10
2022-09-16T14:14:48.358Z,16.10
2022-09-16T16:23:29.979Z,16.50
2022-09-16T16:25:55.972Z,16.70
2022-09-16T16:28:22.678Z,16.80
2022-09-16T16:30:49.193Z,16.90
2022-09-16T16:33:15.199Z,16.90
2022-09-16T16:35:41.128Z,16.90
2022-09-16T16:38:07.985Z,16.90
2022-09-16T16:40:34.678Z,16.90
2022-09-16T16:43:00.708Z,16.80
2022-09-16T16:45:26.672Z,16.80
2022-09-16T16:47:53.330Z,17.00
2022-09-16T16:50:19.333Z,17.10
2022-09-16T16:52:45.309Z,17.20
2022-09-16T16:55:11.298Z,17.10
2022-09-16T16:57:37.253Z,17.00
2022-09-16T17:00:03.245Z,16.90
2022-09-16T17:02:30.179Z,17.00
2022-09-16T17:04:56.142Z,17.10
2022-09-16T17:07:26.216Z,16.90
2022-09-16T17:09:53.123Z,16.90
2022-09-16T17:12:19.107Z,16.90
2022-09-16T17:14:45.094Z,16.80
2022-09-16T17:17:11.946Z,16.60
2022-09-16T17:19:37.933Z,16.70
2022-09-16T17:22:03.923Z,16.80
2022-09-16T17:24:30.586Z,16.80
2022-09-16T17:26:56.516Z,17.00
2022-09-16T17:29:22.492Z,16.80
2022-09-16T17:31:48.428Z,16.80
2022-09-16T17:34:14.429Z,16.90
2022-09-16T17:36:40.419Z,16.90
2022-09-16T17:39:06.373Z,16.90
2022-09-16T17:41:32.387Z,16.90
2022-09-16T17:43:58.447Z,16.80
2022-09-16T17:46:24.564Z,16.90
2022-09-16T17:48:51.291Z,16.80
2022-09-16T17:51:17.277Z,16.90
2022-09-16T17:53:43.270Z,17.20
2022-09-16T17:56:09.999Z,17.40
2022-09-16T17:58:35.966Z,17.30
2022-09-16T18:01:01.977Z,17.30
2022-09-16T18:03:27.939Z,17.20
2022-09-16T18:05:54.764Z,17.40
2022-09-16T18:08:20.718Z,17.50
2022-09-16T18:10:46.714Z,17.40
2022-09-16T18:13:12.679Z,17.40
2022-09-16T18:15:38.606Z,17.40
2022-09-16T18:18:04.569Z,17.40
2022-09-16T18:20:31.220Z,17.10
2022-09-16T18:22:57.234Z,17.20
2022-09-16T18:25:23.167Z,17.30
2022-09-16T18:27:49.962Z,17.20
2022-09-16T18:30:16.223Z,17.30
2022-09-16T18:32:42.647Z,17.20
2022-09-16T18:35:08.605Z,17.30
2022-09-16T18:37:34.594Z,17.00
2022-09-16T18:40:00.679Z,16.80
2022-09-16T18:42:26.715Z,16.80
2022-09-16T18:44:52.674Z,16.80
2022-09-16T18:47:19.458Z,16.90
2022-09-16T18:49:45.415Z,16.80
2022-09-16T18:52:11.383Z,17.00
2022-09-16T18:54:38.082Z,17.00
2022-09-16T18:57:04.064Z,16.70
2022-09-16T18:59:30.972Z,16.90
2022-09-16T19:01:57.043Z,17.10
2022-09-16T19:04:23.161Z,17.20
2022-09-16T19:06:49.105Z,17.10
2022-09-16T19:09:15.059Z,16.80
2022-09-16T19:11:41.053Z,17.10
2022-09-16T19:14:07.276Z,16.80
2022-09-16T19:16:33.559Z,16.70
2022-09-16T19:18:59.798Z,16.70
2022-09-16T19:21:26.069Z,16.80
2022-09-16T19:23:52.303Z,16.80
2022-09-16T19:26:18.598Z,16.60
2022-09-16T19:28:45.977Z,16.60
2022-09-16T19:31:12.244Z,16.70
2022-09-16T19:33:38.507Z,16.40
2022-09-16T19:36:04.817Z,16.20
2022-09-16T19:38:31.094Z,16.50
2022-09-16T19:40:57.341Z,16.60
2022-09-16T19:43:23.414Z,16.70
2022-09-16T22:30:46.432Z,17.20
2022-09-16T22:33:12.384Z,16.90
2022-09-16T22:35:38.450Z,17.00
2022-09-16T22:38:04.417Z,16.80
2022-09-16T22:40:30.450Z,16.50
2022-09-16T22:42:57.210Z,16.60
2022-09-16T22:45:24.005Z,16.70
2022-09-16T22:47:49.951Z,16.80
2022-09-16T22:50:16.211Z,17.00
2022-09-16T22:52:42.260Z,17.20
2022-09-16T22:55:08.964Z,17.10
2022-09-16T22:57:34.941Z,17.00
2022-09-16T23:00:00.903Z,16.50
2022-09-16T23:02:26.832Z,16.30
2022-09-16T23:04:53.738Z,16.30
2022-09-16T23:07:19.711Z,16.30
2022-09-16T23:09:45.691Z,16.50
2022-09-16T23:12:12.571Z,16.50
2022-09-16T23:14:38.519Z,16.70
2022-09-16T23:17:04.490Z,16.60
2022-09-16T23:19:31.237Z,16.60
2022-09-16T23:21:57.224Z,16.70
2022-09-16T23:24:23.162Z,16.70
2022-09-16T23:26:50.008Z,16.80
2022-09-16T23:29:15.991Z,16.70
2022-09-16T23:31:42.021Z,16.40
2022-09-16T23:34:08.686Z,16.40
2022-09-16T23:36:34.678Z,16.40
2022-09-16T23:39:00.668Z,16.40
2022-09-16T23:41:26.595Z,16.50
2022-09-16T23:43:53.260Z,16.40
2022-09-16T23:46:19.260Z,16.30
2022-09-16T23:48:45.290Z,16.60
2022-09-16T23:51:11.277Z,16.50
2022-09-16T23:53:37.270Z,16.70
2022-09-16T23:56:03.274Z,16.80
2022-09-16T23:58:29.208Z,16.80
